createdAt,value
2023-03-21T00:02:19.649Z,79.20
2023-03-21T00:04:52.355Z,79.40
2023-03-21T00:07:20.949Z,79.40
2023-03-21T00:09:48.178Z,79.50
2023-03-21T00:12:16.712Z,79.40
2023-03-21T00:14:44.749Z,79.20
2023-03-21T00:17:12.270Z,79.40
2023-03-21T00:19:41.184Z,79.30
2023-03-21T00:22:09.185Z,79.20
2023-03-21T00:24:37.271Z,79.30
2023-03-21T00:29:52.420Z,79.10
2023-03-21T00:32:21.329Z,79.20
2023-03-21T00:35:01.401Z,79.30
2023-03-21T00:37:33.887Z,79.40
2023-03-21T00:40:01.667Z,79.60
2023-03-21T00:42:30.547Z,79.90
2023-03-21T00:44:57.738Z,80.00
2023-03-21T00:47:25.988Z,80.10
2023-03-21T00:49:53.337Z,80.10
2023-03-21T00:52:34.204Z,80.00
2023-03-21T00:55:07.982Z,79.90
2023-03-21T00:57:38.972Z,80.20
2023-03-21T01:00:10.587Z,80.20
2023-03-21T01:02:43.479Z,80.70
2023-03-21T01:05:11.802Z,81.00
2023-03-21T01:07:39.053Z,81.00
2023-03-21T01:10:12.687Z,81.40
2023-03-21T01:12:39.961Z,81.40
2023-03-21T01:15:07.533Z,81.30
2023-03-21T01:17:34.759Z,81.20
2023-03-21T01:20:01.965Z,81.10
2023-03-21T01:22:29.583Z,81.30
2023-03-21T01:25:08.882Z,81.50
2023-03-21T01:27:45.318Z,81.70
2023-03-21T01:30:20.315Z,81.60
2023-03-21T01:32:50.227Z,81.50
2023-03-21T01:35:17.562Z,81.60
2023-03-21T01:37:45.205Z,81.50
2023-03-21T01:40:18.485Z,81.60
2023-03-21T01:42:46.207Z,81.50
2023-03-21T01:45:52.073Z,81.70
2023-03-21T01:48:21.426Z,82.30
2023-03-21T01:50:52.204Z,82.60
2023-03-21T01:53:41.338Z,83.50
2023-03-21T01:56:26.162Z,84.00
2023-03-21T01:59:21.659Z,85.00
2023-03-21T02:02:10.002Z,85.20
2023-03-21T02:04:50.770Z,85.80
2023-03-21T02:07:29.162Z,86.10
2023-03-21T02:10:08.284Z,86.30
2023-03-21T02:12:35.540Z,86.20
2023-03-21T02:15:05.628Z,86.40
2023-03-21T02:18:03.509Z,86.80
2023-03-21T02:21:18.220Z,86.90
2023-03-21T02:24:30.509Z,86.40
2023-03-21T02:27:15.737Z,86.80
2023-03-21T02:29:52.361Z,87.10
2023-03-21T02:32:36.565Z,87.00
2023-03-21T02:35:19.608Z,87.30
2023-03-21T02:38:00.106Z,87.40
2023-03-21T02:40:47.453Z,87.40
2023-03-21T02:43:24.448Z,87.50
2023-03-21T02:46:00.926Z,87.40
2023-03-21T02:48:49.813Z,87.30
2023-03-21T02:51:22.680Z,87.50
2023-03-21T02:54:21.412Z,87.40
2023-03-21T02:56:44.120Z,87.60
2023-03-21T02:59:14.511Z,87.40
2023-03-21T03:01:41.908Z,87.60
2023-03-21T03:04:24.124Z,87.70
2023-03-21T03:07:25.934Z,87.40
2023-03-21T03:10:39.381Z,87.60
2023-03-21T03:13:32.278Z,87.70
2023-03-21T03:16:28.218Z,87.40
2023-03-21T03:18:58.070Z,87.80
2023-03-21T03:21:37.902Z,87.60
2023-03-21T03:24:23.182Z,87.70
2023-03-21T03:26:55.944Z,87.60
2023-03-21T03:29:28.283Z,87.70
2023-03-21T03:32:03.872Z,87.90
2023-03-21T03:34:39.550Z,88.00
2023-03-21T03:37:16.199Z,88.00
2023-03-21T03:39:47.916Z,88.00
2023-03-21T03:42:28.119Z,87.90
2023-03-21T03:45:05.622Z,88.00
2023-03-21T03:47:50.824Z,88.10
2023-03-21T03:50:41.459Z,88.10
2023-03-21T03:53:35.287Z,88.10
2023-03-21T03:56:04.281Z,88.30
2023-03-21T03:58:44.604Z,88.40
2023-03-21T04:01:14.266Z,88.40
2023-03-21T04:03:50.571Z,88.30
2023-03-21T04:06:19.718Z,88.30
2023-03-21T04:08:48.924Z,88.30
2023-03-21T04:11:16.627Z,88.10
2023-03-21T04:13:49.105Z,88.10
2023-03-21T04:16:23.361Z,88.10
2023-03-21T04:18:50.745Z,87.80
2023-03-21T04:21:21.581Z,87.90
2023-03-21T04:23:48.852Z,87.90
2023-03-21T04:26:16.765Z,87.60
2023-03-21T04:28:53.633Z,87.60
2023-03-21T04:31:27.186Z,87.50
2023-03-21T04:34:09.736Z,87.60
2023-03-21T04:36:45.924Z,87.70
2023-03-21T04:39:13.948Z,87.80
2023-03-21T04:41:45.684Z,87.70
2023-03-21T04:44:14.974Z,87.60
2023-03-21T04:46:43.051Z,87.50
2023-03-21T04:49:11.725Z,87.50
2023-03-21T04:51:39.516Z,87.70
2023-03-21T04:56:38.044Z,87.50
2023-03-21T04:59:12.189Z,87.70
2023-03-21T05:01:41.274Z,87.70
2023-03-21T05:04:11.116Z,87.60
2023-03-21T05:06:42.707Z,87.60
2023-03-21T05:09:10.238Z,87.50
2023-03-21T05:11:40.216Z,87.60
2023-03-21T05:14:10.123Z,87.50
2023-03-21T05:16:45.119Z,87.50
2023-03-21T05:19:13.821Z,87.60
2023-03-21T05:21:43.397Z,87.40
2023-03-21T05:24:20.517Z,87.60
2023-03-21T05:26:50.965Z,87.50
2023-03-21T05:29:20.279Z,87.40
2023-03-21T05:31:53.907Z,87.30
2023-03-21T05:34:21.570Z,87.30
2023-03-21T05:36:49.032Z,87.30
2023-03-21T05:39:16.887Z,87.40
2023-03-21T05:41:53.449Z,87.50
2023-03-21T05:44:20.787Z,87.40
2023-03-21T05:46:48.132Z,87.50
2023-03-21T05:49:15.733Z,87.60
2023-03-21T05:51:45.279Z,87.60
2023-03-21T05:54:16.591Z,87.50
2023-03-21T05:56:46.734Z,87.40
2023-03-21T05:59:21.969Z,87.30
2023-03-21T06:01:53.163Z,87.40
2023-03-21T06:04:21.030Z,87.10
2023-03-21T06:06:48.597Z,86.90
2023-03-21T06:09:15.784Z,87.10
2023-03-21T06:11:51.857Z,87.00
2023-03-21T06:14:32.166Z,87.10
2023-03-21T06:17:25.649Z,87.20
2023-03-21T06:19:58.317Z,87.10
2023-03-21T06:22:30.277Z,87.10
2023-03-21T06:24:57.856Z,87.20
2023-03-21T06:27:25.610Z,87.10
2023-03-21T06:29:55.251Z,87.00
2023-03-21T06:32:23.443Z,87.10
2023-03-21T06:34:56.115Z,87.00
2023-03-21T06:37:23.741Z,87.00
2023-03-21T06:39:51.372Z,87.00
2023-03-21T06:42:20.576Z,87.00
2023-03-21T06:44:48.149Z,87.10
2023-03-21T06:47:16.810Z,86.90
2023-03-21T06:49:45.996Z,86.90
2023-03-21T06:52:13.773Z,86.60
2023-03-21T06:54:42.276Z,86.30
2023-03-21T06:57:14.964Z,86.10
2023-03-21T06:59:42.344Z,85.80
2023-03-21T07:02:19.314Z,85.90
2023-03-21T07:04:55.482Z,85.60
2023-03-21T07:07:27.133Z,85.40
2023-03-21T07:09:54.805Z,85.50
2023-03-21T07:12:22.892Z,85.40
2023-03-21T07:15:28.514Z,85.40
2023-03-21T07:17:56.746Z,85.50
2023-03-21T07:20:23.996Z,85.40
2023-03-21T07:22:51.244Z,85.10
2023-03-21T07:25:20.051Z,84.70
2023-03-21T07:27:47.598Z,85.10
2023-03-21T07:30:15.826Z,84.90
2023-03-21T07:32:43.174Z,84.70
2023-03-21T07:35:12.986Z,84.80
2023-03-21T07:37:41.000Z,84.70
2023-03-21T07:40:10.172Z,84.50
2023-03-21T07:42:39.137Z,84.10
2023-03-21T07:45:07.819Z,83.80
2023-03-21T07:47:36.607Z,83.20
2023-03-21T07:50:04.565Z,83.20
2023-03-21T07:52:32.653Z,83.00
2023-03-21T07:54:59.898Z,83.50
2023-03-21T07:57:27.148Z,83.50
2023-03-21T07:59:54.829Z,83.70
2023-03-21T08:02:22.149Z,83.50
2023-03-21T08:04:49.708Z,83.70
2023-03-21T08:07:17.267Z,83.40
2023-03-21T08:09:44.762Z,82.20
2023-03-21T08:12:12.037Z,82.20
2023-03-21T08:14:39.484Z,82.20
2023-03-21T08:17:09.395Z,82.50
2023-03-21T08:19:37.555Z,82.10
2023-03-21T08:22:06.657Z,82.20
2023-03-21T08:24:34.155Z,81.70
2023-03-21T08:27:02.100Z,81.90
2023-03-21T08:29:29.462Z,82.00
2023-03-21T08:31:58.033Z,82.40
2023-03-21T08:34:26.552Z,82.40
2023-03-21T08:36:54.506Z,82.30
2023-03-21T08:39:22.017Z,82.20
2023-03-21T08:41:49.322Z,82.70
2023-03-21T08:44:17.069Z,82.30
2023-03-21T08:46:44.695Z,82.60
2023-03-21T08:49:12.549Z,82.80
2023-03-21T08:51:41.137Z,82.80
2023-03-21T08:54:08.660Z,82.60
2023-03-21T08:56:37.456Z,81.90
2023-03-21T08:59:04.850Z,81.70
2023-03-21T09:01:32.658Z,82.00
2023-03-21T09:03:59.922Z,81.40
2023-03-21T09:06:27.544Z,81.20
2023-03-21T09:08:54.768Z,80.80
2023-03-21T09:11:21.973Z,80.60
2023-03-21T09:13:49.195Z,80.40
2023-03-21T09:16:16.581Z,81.20
2023-03-21T09:18:50.630Z,80.70
2023-03-21T09:21:19.947Z,81.30
2023-03-21T09:23:48.731Z,80.90
2023-03-21T09:26:16.229Z,80.50
2023-03-21T09:28:43.561Z,80.30
2023-03-21T09:31:11.809Z,79.80
2023-03-21T09:33:42.408Z,80.10
2023-03-21T09:36:18.859Z,78.90
2023-03-21T09:38:47.264Z,78.50
2023-03-21T09:41:26.022Z,78.80
2023-03-21T09:44:26.911Z,78.40
2023-03-21T09:47:13.896Z,78.20
2023-03-21T09:49:45.570Z,78.60
2023-03-21T09:52:48.103Z,78.20
2023-03-21T09:55:22.413Z,76.90
2023-03-21T09:58:07.065Z,77.90
2023-03-21T10:00:39.744Z,76.90
2023-03-21T10:03:23.797Z,77.10
2023-03-21T10:05:52.840Z,77.20
2023-03-21T10:08:25.014Z,76.10
2023-03-21T10:10:56.511Z,74.10
2023-03-21T10:13:27.879Z,75.70
2023-03-21T10:16:01.533Z,75.30
2023-03-21T10:18:31.191Z,74.50
2023-03-21T10:20:58.671Z,75.20
2023-03-21T10:23:29.566Z,73.60
2023-03-21T10:26:02.880Z,71.70
2023-03-21T10:31:26.412Z,72.50
2023-03-21T10:33:57.526Z,72.40
2023-03-21T10:36:27.872Z,71.70
2023-03-21T10:39:19.437Z,73.30
2023-03-21T10:41:46.776Z,71.10
2023-03-21T10:44:17.223Z,70.50
2023-03-21T10:46:53.588Z,72.30
2023-03-21T10:49:21.624Z,70.70
2023-03-21T10:51:54.086Z,71.10
2023-03-21T10:54:26.352Z,71.30
2023-03-21T10:57:17.858Z,69.90
2023-03-21T10:59:51.455Z,70.10
2023-03-21T11:02:25.459Z,70.20
2023-03-21T11:04:54.790Z,70.40
2023-03-21T11:07:25.315Z,70.30
2023-03-21T11:09:58.263Z,69.90
2023-03-21T11:12:38.007Z,69.30
2023-03-21T11:15:37.229Z,68.90
2023-03-21T11:18:18.351Z,69.00
2023-03-21T11:21:11.283Z,68.60
2023-03-21T11:23:46.916Z,69.80
2023-03-21T11:26:27.819Z,69.70
2023-03-21T11:28:55.720Z,68.00
2023-03-21T11:31:24.876Z,69.30
2023-03-21T11:33:57.059Z,69.40
2023-03-21T11:36:27.168Z,68.80
2023-03-21T11:38:58.984Z,68.80
2023-03-21T11:41:30.646Z,68.20
2023-03-21T11:43:59.445Z,69.70
2023-03-21T11:46:32.351Z,70.70
2023-03-21T11:49:01.375Z,71.10
2023-03-21T11:51:28.592Z,71.00
2023-03-21T11:54:10.704Z,68.80
2023-03-21T11:57:01.155Z,68.40
2023-03-21T11:59:42.771Z,68.60
2023-03-21T12:02:43.353Z,67.50
2023-03-21T12:05:21.728Z,67.00
2023-03-21T12:07:51.972Z,65.00
2023-03-21T12:10:53.050Z,66.10
2023-03-21T12:13:32.165Z,65.60
2023-03-21T12:16:26.274Z,66.60
2023-03-21T12:19:37.879Z,62.50
2023-03-21T12:22:12.779Z,63.50
2023-03-21T12:24:53.610Z,62.00
2023-03-21T12:27:39.280Z,63.30
2023-03-21T12:30:31.778Z,63.40
2023-03-21T12:33:25.580Z,62.90
2023-03-21T12:36:11.279Z,62.80
2023-03-21T12:39:04.062Z,63.40
2023-03-21T12:41:37.473Z,64.80
2023-03-21T12:44:12.332Z,65.50
2023-03-21T12:46:47.818Z,65.00
2023-03-21T12:49:25.509Z,66.50
2023-03-21T12:52:03.130Z,65.60
2023-03-21T12:54:44.645Z,66.70
2023-03-21T12:57:30.578Z,67.10
2023-03-21T13:00:25.279Z,66.80
2023-03-21T13:03:11.099Z,67.50
2023-03-21T13:05:48.034Z,67.30
2023-03-21T13:08:40.421Z,67.00
2023-03-21T13:11:11.601Z,68.30
2023-03-21T13:13:56.994Z,68.70
2023-03-21T13:16:35.575Z,68.60
2023-03-21T13:19:23.773Z,68.60
2023-03-21T13:21:55.277Z,68.70
2023-03-21T13:24:32.523Z,67.90
2023-03-21T13:27:06.822Z,68.30
2023-03-21T13:29:49.682Z,68.10
2023-03-21T13:32:32.066Z,68.80
2023-03-21T13:35:21.231Z,68.70
2023-03-21T13:37:56.971Z,68.40
2023-03-21T13:40:57.732Z,68.90
2023-03-21T13:43:43.967Z,68.70
2023-03-21T13:46:50.396Z,68.50
2023-03-21T13:49:35.002Z,68.40
2023-03-21T13:52:12.050Z,68.80
2023-03-21T13:54:44.679Z,68.30
2023-03-21T13:57:26.993Z,68.10
2023-03-21T14:00:17.638Z,66.90
2023-03-21T14:03:09.717Z,67.00
2023-03-21T14:05:38.775Z,66.80
2023-03-21T14:08:24.696Z,66.40
2023-03-21T14:11:03.691Z,65.90
2023-03-21T14:13:33.072Z,65.20
2023-03-21T14:16:12.686Z,65.90
2023-03-21T14:18:56.116Z,66.40
2023-03-21T14:21:34.760Z,66.80
2023-03-21T14:24:05.227Z,67.10
2023-03-21T14:26:40.384Z,67.40
2023-03-21T14:29:26.236Z,66.40
2023-03-21T14:31:56.401Z,66.60
2023-03-21T14:34:27.130Z,66.00
2023-03-21T14:36:58.450Z,66.10
2023-03-21T14:39:31.931Z,66.80
2023-03-21T14:42:13.610Z,66.40
2023-03-21T14:44:57.840Z,66.30
2023-03-21T14:47:27.969Z,66.90
2023-03-21T14:49:57.044Z,66.80
2023-03-21T14:52:32.645Z,66.50
2023-03-21T14:55:01.523Z,67.20
2023-03-21T14:57:33.362Z,67.80
2023-03-21T15:00:06.503Z,66.50
2023-03-21T15:02:38.259Z,67.40
2023-03-21T15:05:31.549Z,66.80
2023-03-21T15:08:08.436Z,67.00
2023-03-21T15:10:35.850Z,67.10
2023-03-21T15:13:19.343Z,67.40
2023-03-21T15:15:47.598Z,67.80
2023-03-21T15:18:18.444Z,68.30
2023-03-21T15:20:47.827Z,68.50
2023-03-21T15:23:38.694Z,69.10
2023-03-21T15:26:06.552Z,69.70
2023-03-21T15:28:35.310Z,70.10
2023-03-21T15:31:04.773Z,70.50
2023-03-21T15:33:33.110Z,70.70
2023-03-21T15:36:00.622Z,71.40
2023-03-21T15:38:37.262Z,71.80
2023-03-21T15:41:23.684Z,71.30
2023-03-21T15:44:05.589Z,71.40
2023-03-21T15:46:45.903Z,71.00
2023-03-21T15:49:13.170Z,70.50
2023-03-21T15:51:46.501Z,70.50
2023-03-21T15:54:17.680Z,70.40
2023-03-21T15:56:51.706Z,70.70
2023-03-21T15:59:19.628Z,71.10
2023-03-21T16:01:52.335Z,71.30
2023-03-21T16:04:19.668Z,71.80
2023-03-21T16:06:56.847Z,71.50
2023-03-21T16:09:24.676Z,71.70
2023-03-21T16:11:57.417Z,72.00
2023-03-21T16:14:30.025Z,72.40
2023-03-21T16:16:59.709Z,72.50
2023-03-21T16:19:29.654Z,72.60
2023-03-21T16:21:56.882Z,72.20
2023-03-21T16:24:24.102Z,73.20
2023-03-21T16:26:52.136Z,73.70
2023-03-21T16:29:20.695Z,73.90
2023-03-21T16:31:49.103Z,74.10
2023-03-21T16:34:17.447Z,74.50
2023-03-21T16:36:44.768Z,74.80
2023-03-21T16:39:20.967Z,74.60
2023-03-21T16:41:48.742Z,75.40
2023-03-21T16:44:16.346Z,76.10
2023-03-21T16:46:44.564Z,76.40
2023-03-21T16:49:22.102Z,76.60
2023-03-21T16:51:49.381Z,77.30
2023-03-21T16:54:16.690Z,78.10
2023-03-21T16:56:51.378Z,78.60
2023-03-21T16:59:18.679Z,78.40
2023-03-21T17:01:47.800Z,79.30
2023-03-21T17:04:17.438Z,79.90
2023-03-21T17:06:47.954Z,80.80
2023-03-21T17:09:16.943Z,81.40
2023-03-21T17:11:44.812Z,82.20
2023-03-21T17:14:13.424Z,82.70
2023-03-21T17:16:42.829Z,83.10
2023-03-21T17:19:26.335Z,83.40
2023-03-21T17:21:53.762Z,83.60
2023-03-21T17:24:21.131Z,83.80
2023-03-21T17:26:48.359Z,83.50
2023-03-21T17:29:15.658Z,84.40
2023-03-21T17:31:47.253Z,84.30
2023-03-21T17:34:15.340Z,84.20
2023-03-21T17:36:43.956Z,83.90
2023-03-21T17:39:22.656Z,84.00
2023-03-21T17:41:51.970Z,83.90
2023-03-21T17:44:20.365Z,83.80
2023-03-21T17:46:50.410Z,83.80
2023-03-21T17:49:19.916Z,83.80
2023-03-21T17:51:47.299Z,83.90
2023-03-21T17:54:14.562Z,83.90
2023-03-21T17:56:42.137Z,84.20
2023-03-21T17:59:13.311Z,84.20
2023-03-21T18:01:40.726Z,84.10
2023-03-21T18:04:08.119Z,84.20
2023-03-21T18:06:37.231Z,84.20
2023-03-21T18:09:11.033Z,84.40
2023-03-21T18:11:39.682Z,84.50
2023-03-21T18:14:16.170Z,84.20
2023-03-21T18:16:46.179Z,83.50
2023-03-21T18:19:13.772Z,83.40
2023-03-21T18:21:44.889Z,83.30
2023-03-21T18:24:12.887Z,83.00
2023-03-21T18:26:41.258Z,83.00
2023-03-21T18:30:13.078Z,83.30
2023-03-21T18:32:08.840Z,83.40
2023-03-21T18:34:39.055Z,83.60
2023-03-21T18:37:09.059Z,83.90
2023-03-21T18:39:38.082Z,84.10
2023-03-21T18:42:06.648Z,84.40
2023-03-21T18:44:39.982Z,84.80
2023-03-21T18:47:08.742Z,85.00
2023-03-21T18:50:10.605Z,85.00
2023-03-21T18:52:26.301Z,85.10
2023-03-21T18:54:54.450Z,85.00
2023-03-21T18:57:39.015Z,85.40
2023-03-21T19:00:12.712Z,85.00
2023-03-21T19:02:47.783Z,85.50
2023-03-21T19:05:17.848Z,86.00
2023-03-21T19:07:46.545Z,86.30
2023-03-21T19:10:18.977Z,86.50
2023-03-21T19:12:48.620Z,86.60
2023-03-21T19:15:19.389Z,86.90
2023-03-21T19:18:28.611Z,87.00
2023-03-21T19:20:34.945Z,87.10
2023-03-21T19:23:03.259Z,87.10
2023-03-21T19:25:30.641Z,87.10
2023-03-21T19:27:57.896Z,87.20
2023-03-21T19:30:25.127Z,87.00
2023-03-21T19:32:52.591Z,87.10
2023-03-21T19:35:21.800Z,87.10
2023-03-21T19:37:49.648Z,87.20
2023-03-21T19:40:19.792Z,87.00
2023-03-21T19:42:47.383Z,86.80
2023-03-21T19:45:14.967Z,86.80
2023-03-21T19:47:42.610Z,86.70
2023-03-21T19:52:58.780Z,87.10
2023-03-21T19:55:26.275Z,86.90
2023-03-21T19:57:53.633Z,86.90
2023-03-21T20:00:21.650Z,86.90
2023-03-21T20:02:49.184Z,87.00
2023-03-21T20:05:20.458Z,87.00
2023-03-21T20:07:48.187Z,87.00
2023-03-21T20:10:15.653Z,86.80
2023-03-21T20:12:42.911Z,86.90
2023-03-21T20:15:17.708Z,86.50
2023-03-21T20:17:47.236Z,86.70
2023-03-21T20:20:17.416Z,86.50
2023-03-21T20:23:08.019Z,86.70
2023-03-21T20:25:39.155Z,86.80
2023-03-21T20:28:20.200Z,86.50
2023-03-21T20:30:54.656Z,86.70
2023-03-21T20:33:22.091Z,86.50
2023-03-21T20:38:39.467Z,86.60
2023-03-21T20:41:07.208Z,86.40
2023-03-21T20:46:22.929Z,86.40
2023-03-21T20:48:50.701Z,86.60
2023-03-21T20:52:18.579Z,86.50
2023-03-21T20:54:05.322Z,86.40
2023-03-21T20:56:33.011Z,86.10
2023-03-21T20:59:15.316Z,86.20
2023-03-21T21:01:45.489Z,86.10
2023-03-21T21:04:19.375Z,86.10
2023-03-21T21:06:48.007Z,86.10
2023-03-21T21:09:16.501Z,85.70
2023-03-21T21:14:31.076Z,85.70
2023-03-21T21:17:02.487Z,85.70
2023-03-21T21:19:33.872Z,85.70
2023-03-21T21:22:01.609Z,85.70
2023-03-21T21:24:28.820Z,85.40
2023-03-21T21:26:56.032Z,85.40
2023-03-21T21:29:23.241Z,85.00
2023-03-21T21:31:50.944Z,84.90
2023-03-21T21:34:19.798Z,84.70
2023-03-21T21:36:47.972Z,84.80
2023-03-21T21:39:15.772Z,84.80
2023-03-21T21:41:43.244Z,84.70
2023-03-21T21:44:11.039Z,84.90
2023-03-21T21:46:39.060Z,84.60
2023-03-21T21:49:06.661Z,84.30
2023-03-21T21:51:34.909Z,84.40
2023-03-21T21:54:04.280Z,84.70
2023-03-21T21:56:38.370Z,84.50
2023-03-21T21:59:05.887Z,84.50
2023-03-21T22:01:38.554Z,84.40
2023-03-21T22:04:10.819Z,84.70
2023-03-21T22:06:38.131Z,84.80
2023-03-21T22:09:05.518Z,84.70
2023-03-21T22:11:33.328Z,84.40
2023-03-21T22:14:00.663Z,84.30
2023-03-21T22:16:27.961Z,84.30
2023-03-21T22:18:55.230Z,84.50
2023-03-21T22:21:22.483Z,84.30
2023-03-21T22:23:50.296Z,84.40
2023-03-21T22:26:17.661Z,84.70
2023-03-21T22:28:44.919Z,84.40
2023-03-21T22:31:16.416Z,84.20
2023-03-21T22:33:44.710Z,83.50
2023-03-21T22:36:12.286Z,83.40
2023-03-21T22:38:41.899Z,83.10
2023-03-21T22:41:09.325Z,83.30
2023-03-21T22:43:36.577Z,83.00
2023-03-21T22:46:04.685Z,83.00
2023-03-21T22:48:32.910Z,83.00
2023-03-21T22:51:00.617Z,82.70
2023-03-21T22:53:27.968Z,82.50
2023-03-21T22:55:55.600Z,82.60
2023-03-21T22:58:23.074Z,81.90
2023-03-21T23:00:50.400Z,81.80
2023-03-21T23:03:17.736Z,82.10
2023-03-21T23:05:45.784Z,82.00
2023-03-21T23:08:13.302Z,82.00
2023-03-21T23:10:43.429Z,82.20
2023-03-21T23:13:11.483Z,82.20
2023-03-21T23:15:39.774Z,82.20
2023-03-21T23:18:07.744Z,81.90
2023-03-21T23:20:35.141Z,81.90
2023-03-21T23:23:02.493Z,82.00
2023-03-21T23:25:30.296Z,81.90
2023-03-21T23:27:57.531Z,82.10
2023-03-21T23:30:25.163Z,82.10
2023-03-21T23:32:56.075Z,82.10
2023-03-21T23:35:23.324Z,82.10
2023-03-21T23:37:52.606Z,82.30
2023-03-21T23:40:21.103Z,82.20
2023-03-21T23:42:48.396Z,82.30
2023-03-21T23:45:16.593Z,82.30
2023-03-21T23:47:44.410Z,82.30
2023-03-21T23:50:11.868Z,82.30
2023-03-21T23:52:41.506Z,82.30
2023-03-21T23:55:09.543Z,82.40
2023-03-21T23:57:38.224Z,82.30
